sensor_id;sensor_type;location;lat;lon;timestamp;P1;durP1;ratioP1;P2;durP2;ratioP2
68976;SDS011;56029;52.568;13.588;2023-03-12T00:01:23;3.97;;;1.80;;
68976;SDS011;56029;52.568;13.588;2023-03-12T00:03:49;3.78;;;1.33;;
68976;SDS011;56029;52.568;13.588;2023-03-12T00:06:16;5.22;;;1.45;;
68976;SDS011;56029;52.568;13.588;2023-03-12T00:08:42;5.22;;;1.60;;
68976;SDS011;56029;52.568;13.588;2023-03-12T00:11:09;4.68;;;1.90;;
68976;SDS011;56029;52.568;13.588;2023-03-12T00:13:37;6.10;;;1.85;;
68976;SDS011;56029;52.568;13.588;2023-03-12T00:16:07;5.38;;;2.05;;
68976;SDS011;56029;52.568;13.588;2023-03-12T00:18:34;5.18;;;2.28;;
68976;SDS011;56029;52.568;13.588;2023-03-12T00:21:00;3.60;;;1.88;;
68976;SDS011;56029;52.568;13.588;2023-03-12T00:23:25;4.97;;;1.98;;
68976;SDS011;56029;52.568;13.588;2023-03-12T00:25:51;4.73;;;1.80;;
68976;SDS011;56029;52.568;13.588;2023-03-12T00:28:17;8.23;;;2.43;;
68976;SDS011;56029;52.568;13.588;2023-03-12T00:30:42;3.63;;;1.85;;
68976;SDS011;56029;52.568;13.588;2023-03-12T00:33:08;4.17;;;1.97;;
68976;SDS011;56029;52.568;13.588;2023-03-12T00:35:36;6.20;;;2.05;;
68976;SDS011;56029;52.568;13.588;2023-03-12T00:38:02;5.80;;;1.83;;
68976;SDS011;56029;52.568;13.588;2023-03-12T00:40:28;6.13;;;1.90;;
68976;SDS011;56029;52.568;13.588;2023-03-12T00:42:53;5.73;;;2.10;;
68976;SDS011;56029;52.568;13.588;2023-03-12T00:45:19;3.88;;;1.60;;
68976;SDS011;56029;52.568;13.588;2023-03-12T00:47:44;5.97;;;2.20;;
68976;SDS011;56029;52.568;13.588;2023-03-12T00:50:10;5.63;;;1.60;;
68976;SDS011;56029;52.568;13.588;2023-03-12T00:52:35;6.43;;;2.40;;
68976;SDS011;56029;52.568;13.588;2023-03-12T00:55:01;7.13;;;2.13;;
68976;SDS011;56029;52.568;13.588;2023-03-12T00:57:26;6.40;;;1.83;;
68976;SDS011;56029;52.568;13.588;2023-03-12T00:59:52;7.17;;;2.40;;
68976;SDS011;56029;52.568;13.588;2023-03-12T01:02:17;5.37;;;2.00;;
68976;SDS011;56029;52.568;13.588;2023-03-12T01:04:43;5.43;;;1.70;;
68976;SDS011;56029;52.568;13.588;2023-03-12T01:07:08;4.87;;;1.90;;
68976;SDS011;56029;52.568;13.588;2023-03-12T01:09:34;4.50;;;1.67;;
68976;SDS011;56029;52.568;13.588;2023-03-12T01:11:59;5.75;;;1.80;;
68976;SDS011;56029;52.568;13.588;2023-03-12T01:14:25;3.57;;;1.80;;
68976;SDS011;56029;52.568;13.588;2023-03-12T01:16:50;3.67;;;1.50;;
68976;SDS011;56029;52.568;13.588;2023-03-12T01:19:16;5.60;;;1.92;;
68976;SDS011;56029;52.568;13.588;2023-03-12T01:21:41;3.72;;;1.80;;
68976;SDS011;56029;52.568;13.588;2023-03-12T01:24:07;5.43;;;1.97;;
68976;SDS011;56029;52.568;13.588;2023-03-12T01:26:33;2.10;;;1.47;;
68976;SDS011;56029;52.568;13.588;2023-03-12T01:28:58;3.25;;;1.70;;
68976;SDS011;56029;52.568;13.588;2023-03-12T01:31:24;5.57;;;2.37;;
68976;SDS011;56029;52.568;13.588;2023-03-12T01:33:50;4.45;;;1.85;;
68976;SDS011;56029;52.568;13.588;2023-03-12T01:36:21;5.05;;;2.03;;
68976;SDS011;56029;52.568;13.588;2023-03-12T01:38:54;4.25;;;1.65;;
68976;SDS011;56029;52.568;13.588;2023-03-12T01:41:22;12.18;;;2.40;;
68976;SDS011;56029;52.568;13.588;2023-03-12T01:43:49;4.35;;;1.77;;
68976;SDS011;56029;52.568;13.588;2023-03-12T01:48:41;6.47;;;2.10;;
68976;SDS011;56029;52.568;13.588;2023-03-12T01:51:11;4.90;;;2.03;;
68976;SDS011;56029;52.568;13.588;2023-03-12T01:53:39;3.17;;;1.50;;
68976;SDS011;56029;52.568;13.588;2023-03-12T01:56:06;5.82;;;2.10;;
68976;SDS011;56029;52.568;13.588;2023-03-12T01:58:33;5.00;;;2.08;;
68976;SDS011;56029;52.568;13.588;2023-03-12T02:01:02;6.97;;;2.30;;
68976;SDS011;56029;52.568;13.588;2023-03-12T02:03:28;5.30;;;2.17;;
68976;SDS011;56029;52.568;13.588;2023-03-12T02:06:16;5.38;;;2.25;;
68976;SDS011;56029;52.568;13.588;2023-03-12T02:08:43;4.18;;;2.15;;
68976;SDS011;56029;52.568;13.588;2023-03-12T02:11:10;3.80;;;2.05;;
68976;SDS011;56029;52.568;13.588;2023-03-12T02:13:36;7.95;;;2.38;;
68976;SDS011;56029;52.568;13.588;2023-03-12T02:16:02;5.37;;;2.20;;
68976;SDS011;56029;52.568;13.588;2023-03-12T02:18:27;6.65;;;2.30;;
68976;SDS011;56029;52.568;13.588;2023-03-12T02:23:43;5.13;;;2.05;;
68976;SDS011;56029;52.568;13.588;2023-03-12T02:26:14;6.75;;;2.65;;
68976;SDS011;56029;52.568;13.588;2023-03-12T02:28:42;5.72;;;2.42;;
68976;SDS011;56029;52.568;13.588;2023-03-12T02:31:15;5.47;;;2.40;;
68976;SDS011;56029;52.568;13.588;2023-03-12T02:33:44;5.43;;;2.17;;
68976;SDS011;56029;52.568;13.588;2023-03-12T02:36:09;3.78;;;1.70;;
68976;SDS011;56029;52.568;13.588;2023-03-12T02:41:16;7.03;;;2.40;;
68976;SDS011;56029;52.568;13.588;2023-03-12T02:44:05;4.60;;;2.13;;
68976;SDS011;56029;52.568;13.588;2023-03-12T02:46:43;7.47;;;2.70;;
68976;SDS011;56029;52.568;13.588;2023-03-12T02:49:10;6.72;;;2.00;;
68976;SDS011;56029;52.568;13.588;2023-03-12T02:51:38;6.40;;;2.38;;
68976;SDS011;56029;52.568;13.588;2023-03-12T02:54:07;3.03;;;1.70;;
68976;SDS011;56029;52.568;13.588;2023-03-12T02:56:33;6.22;;;2.67;;
68976;SDS011;56029;52.568;13.588;2023-03-12T02:58:59;5.03;;;2.10;;
68976;SDS011;56029;52.568;13.588;2023-03-12T03:01:25;6.20;;;2.10;;
68976;SDS011;56029;52.568;13.588;2023-03-12T03:03:51;6.13;;;2.60;;
68976;SDS011;56029;52.568;13.588;2023-03-12T03:06:17;5.45;;;2.30;;
68976;SDS011;56029;52.568;13.588;2023-03-12T03:08:43;6.03;;;2.23;;
68976;SDS011;56029;52.568;13.588;2023-03-12T03:11:08;5.70;;;2.28;;
68976;SDS011;56029;52.568;13.588;2023-03-12T03:13:34;6.28;;;2.42;;
68976;SDS011;56029;52.568;13.588;2023-03-12T03:16:00;6.70;;;2.37;;
68976;SDS011;56029;52.568;13.588;2023-03-12T03:18:28;5.90;;;2.30;;
68976;SDS011;56029;52.568;13.588;2023-03-12T03:20:55;6.15;;;2.63;;
68976;SDS011;56029;52.568;13.588;2023-03-12T03:23:25;8.50;;;2.80;;
68976;SDS011;56029;52.568;13.588;2023-03-12T03:25:50;6.50;;;2.30;;
68976;SDS011;56029;52.568;13.588;2023-03-12T03:28:20;6.15;;;2.70;;
68976;SDS011;56029;52.568;13.588;2023-03-12T03:30:47;6.68;;;2.13;;
68976;SDS011;56029;52.568;13.588;2023-03-12T03:33:13;6.43;;;2.30;;
68976;SDS011;56029;52.568;13.588;2023-03-12T03:35:38;3.60;;;1.58;;
68976;SDS011;56029;52.568;13.588;2023-03-12T03:38:04;7.27;;;2.60;;
68976;SDS011;56029;52.568;13.588;2023-03-12T03:40:30;6.60;;;2.30;;
68976;SDS011;56029;52.568;13.588;2023-03-12T03:42:55;6.25;;;2.58;;
68976;SDS011;56029;52.568;13.588;2023-03-12T03:45:21;6.93;;;2.30;;
68976;SDS011;56029;52.568;13.588;2023-03-12T03:47:46;6.73;;;2.50;;
68976;SDS011;56029;52.568;13.588;2023-03-12T03:50:12;8.63;;;2.67;;
68976;SDS011;56029;52.568;13.588;2023-03-12T03:52:38;7.00;;;2.70;;
68976;SDS011;56029;52.568;13.588;2023-03-12T03:55:04;6.78;;;2.50;;
68976;SDS011;56029;52.568;13.588;2023-03-12T03:57:29;5.30;;;2.65;;
68976;SDS011;56029;52.568;13.588;2023-03-12T03:59:55;6.87;;;2.60;;
68976;SDS011;56029;52.568;13.588;2023-03-12T04:02:23;5.13;;;2.50;;
68976;SDS011;56029;52.568;13.588;2023-03-12T04:04:50;7.75;;;2.50;;
68976;SDS011;56029;52.568;13.588;2023-03-12T04:07:16;5.85;;;2.70;;
68976;SDS011;56029;52.568;13.588;2023-03-12T04:09:41;8.67;;;3.30;;
68976;SDS011;56029;52.568;13.588;2023-03-12T04:12:07;6.43;;;2.13;;
68976;SDS011;56029;52.568;13.588;2023-03-12T04:14:33;5.05;;;2.78;;
68976;SDS011;56029;52.568;13.588;2023-03-12T04:16:59;6.33;;;2.67;;
68976;SDS011;56029;52.568;13.588;2023-03-12T04:19:25;6.93;;;2.60;;
68976;SDS011;56029;52.568;13.588;2023-03-12T04:21:50;5.90;;;2.60;;
68976;SDS011;56029;52.568;13.588;2023-03-12T04:24:16;6.73;;;2.67;;
68976;SDS011;56029;52.568;13.588;2023-03-12T04:26:42;8.23;;;2.80;;
68976;SDS011;56029;52.568;13.588;2023-03-12T04:29:08;6.57;;;2.50;;
68976;SDS011;56029;52.568;13.588;2023-03-12T04:31:34;8.90;;;2.80;;
68976;SDS011;56029;52.568;13.588;2023-03-12T04:33:59;6.60;;;2.78;;
68976;SDS011;56029;52.568;13.588;2023-03-12T04:36:25;6.20;;;3.00;;
68976;SDS011;56029;52.568;13.588;2023-03-12T04:38:51;6.88;;;2.63;;
68976;SDS011;56029;52.568;13.588;2023-03-12T04:41:16;6.43;;;3.10;;
68976;SDS011;56029;52.568;13.588;2023-03-12T04:43:42;6.40;;;2.80;;
68976;SDS011;56029;52.568;13.588;2023-03-12T04:46:07;7.15;;;2.70;;
68976;SDS011;56029;52.568;13.588;2023-03-12T04:48:34;8.32;;;3.05;;
68976;SDS011;56029;52.568;13.588;2023-03-12T04:51:00;6.10;;;2.70;;
68976;SDS011;56029;52.568;13.588;2023-03-12T04:53:26;8.30;;;3.20;;
68976;SDS011;56029;52.568;13.588;2023-03-12T04:55:52;6.63;;;3.17;;
68976;SDS011;56029;52.568;13.588;2023-03-12T04:58:18;7.68;;;3.20;;
68976;SDS011;56029;52.568;13.588;2023-03-12T05:00:44;8.82;;;3.45;;
68976;SDS011;56029;52.568;13.588;2023-03-12T05:03:10;8.47;;;3.50;;
68976;SDS011;56029;52.568;13.588;2023-03-12T05:05:35;8.25;;;3.30;;
68976;SDS011;56029;52.568;13.588;2023-03-12T05:08:02;9.05;;;3.60;;
68976;SDS011;56029;52.568;13.588;2023-03-12T05:10:27;9.35;;;4.07;;
68976;SDS011;56029;52.568;13.588;2023-03-12T05:12:53;11.33;;;3.97;;
68976;SDS011;56029;52.568;13.588;2023-03-12T05:15:19;8.80;;;3.80;;
68976;SDS011;56029;52.568;13.588;2023-03-12T05:17:44;9.88;;;3.60;;
68976;SDS011;56029;52.568;13.588;2023-03-12T05:20:10;9.30;;;3.83;;
68976;SDS011;56029;52.568;13.588;2023-03-12T05:22:37;9.93;;;4.20;;
68976;SDS011;56029;52.568;13.588;2023-03-12T05:25:03;10.55;;;4.03;;
68976;SDS011;56029;52.568;13.588;2023-03-12T05:27:29;7.97;;;3.40;;
68976;SDS011;56029;52.568;13.588;2023-03-12T05:29:54;9.60;;;3.90;;
68976;SDS011;56029;52.568;13.588;2023-03-12T05:32:20;10.40;;;4.13;;
68976;SDS011;56029;52.568;13.588;2023-03-12T05:34:45;9.93;;;3.70;;
68976;SDS011;56029;52.568;13.588;2023-03-12T05:37:11;9.68;;;3.97;;
68976;SDS011;56029;52.568;13.588;2023-03-12T05:39:37;9.27;;;4.10;;
68976;SDS011;56029;52.568;13.588;2023-03-12T05:42:03;12.60;;;4.65;;
68976;SDS011;56029;52.568;13.588;2023-03-12T05:44:28;11.18;;;4.85;;
68976;SDS011;56029;52.568;13.588;2023-03-12T05:46:54;9.90;;;4.50;;
68976;SDS011;56029;52.568;13.588;2023-03-12T05:49:20;9.13;;;3.87;;
68976;SDS011;56029;52.568;13.588;2023-03-12T05:51:46;11.68;;;4.97;;
68976;SDS011;56029;52.568;13.588;2023-03-12T05:54:14;12.23;;;4.93;;
68976;SDS011;56029;52.568;13.588;2023-03-12T05:56:40;10.73;;;4.60;;
68976;SDS011;56029;52.568;13.588;2023-03-12T05:59:06;8.37;;;3.77;;
68976;SDS011;56029;52.568;13.588;2023-03-12T06:01:32;10.43;;;4.28;;
68976;SDS011;56029;52.568;13.588;2023-03-12T06:03:57;11.27;;;4.47;;
68976;SDS011;56029;52.568;13.588;2023-03-12T06:06:23;10.93;;;4.43;;
68976;SDS011;56029;52.568;13.588;2023-03-12T06:08:49;8.07;;;3.75;;
68976;SDS011;56029;52.568;13.588;2023-03-12T06:11:16;13.82;;;4.75;;
68976;SDS011;56029;52.568;13.588;2023-03-12T06:13:41;10.23;;;4.33;;
68976;SDS011;56029;52.568;13.588;2023-03-12T06:16:08;10.93;;;4.40;;
68976;SDS011;56029;52.568;13.588;2023-03-12T06:18:36;12.97;;;4.47;;
68976;SDS011;56029;52.568;13.588;2023-03-12T06:21:13;14.88;;;4.53;;
68976;SDS011;56029;52.568;13.588;2023-03-12T06:23:46;10.90;;;4.53;;
68976;SDS011;56029;52.568;13.588;2023-03-12T06:26:13;9.82;;;4.05;;
68976;SDS011;56029;52.568;13.588;2023-03-12T06:28:39;11.23;;;3.95;;
68976;SDS011;56029;52.568;13.588;2023-03-12T06:31:05;10.43;;;4.57;;
68976;SDS011;56029;52.568;13.588;2023-03-12T06:33:31;10.13;;;4.53;;
68976;SDS011;56029;52.568;13.588;2023-03-12T06:35:59;9.85;;;4.57;;
68976;SDS011;56029;52.568;13.588;2023-03-12T06:38:25;10.98;;;4.63;;
68976;SDS011;56029;52.568;13.588;2023-03-12T06:40:55;8.00;;;3.53;;
68976;SDS011;56029;52.568;13.588;2023-03-12T06:43:22;9.15;;;4.30;;
68976;SDS011;56029;52.568;13.588;2023-03-12T06:45:48;11.30;;;4.45;;
68976;SDS011;56029;52.568;13.588;2023-03-12T06:48:13;11.25;;;4.25;;
68976;SDS011;56029;52.568;13.588;2023-03-12T06:50:39;10.57;;;4.40;;
68976;SDS011;56029;52.568;13.588;2023-03-12T06:53:04;9.47;;;4.00;;
68976;SDS011;56029;52.568;13.588;2023-03-12T06:55:30;9.25;;;3.95;;
68976;SDS011;56029;52.568;13.588;2023-03-12T06:57:55;10.43;;;4.70;;
68976;SDS011;56029;52.568;13.588;2023-03-12T07:00:21;9.40;;;4.17;;
68976;SDS011;56029;52.568;13.588;2023-03-12T07:02:46;11.45;;;4.28;;
68976;SDS011;56029;52.568;13.588;2023-03-12T07:05:13;9.55;;;4.20;;
68976;SDS011;56029;52.568;13.588;2023-03-12T07:07:38;8.73;;;3.53;;
68976;SDS011;56029;52.568;13.588;2023-03-12T07:10:04;9.37;;;4.00;;
68976;SDS011;56029;52.568;13.588;2023-03-12T07:12:31;9.25;;;3.97;;
68976;SDS011;56029;52.568;13.588;2023-03-12T07:14:57;10.73;;;4.18;;
68976;SDS011;56029;52.568;13.588;2023-03-12T07:17:22;9.77;;;4.10;;
68976;SDS011;56029;52.568;13.588;2023-03-12T07:19:50;9.75;;;4.43;;
68976;SDS011;56029;52.568;13.588;2023-03-12T07:22:16;12.60;;;4.03;;
68976;SDS011;56029;52.568;13.588;2023-03-12T07:24:42;8.07;;;3.97;;
68976;SDS011;56029;52.568;13.588;2023-03-12T07:27:07;8.98;;;4.03;;
68976;SDS011;56029;52.568;13.588;2023-03-12T07:29:33;10.97;;;4.50;;
68976;SDS011;56029;52.568;13.588;2023-03-12T07:31:58;11.07;;;4.43;;
68976;SDS011;56029;52.568;13.588;2023-03-12T07:34:24;11.02;;;3.90;;
68976;SDS011;56029;52.568;13.588;2023-03-12T07:36:49;9.10;;;4.13;;
68976;SDS011;56029;52.568;13.588;2023-03-12T07:39:15;9.25;;;4.28;;
68976;SDS011;56029;52.568;13.588;2023-03-12T07:41:40;9.23;;;3.90;;
68976;SDS011;56029;52.568;13.588;2023-03-12T07:44:06;9.30;;;4.10;;
68976;SDS011;56029;52.568;13.588;2023-03-12T07:46:32;8.93;;;4.07;;
68976;SDS011;56029;52.568;13.588;2023-03-12T07:48:58;7.63;;;3.70;;
68976;SDS011;56029;52.568;13.588;2023-03-12T07:51:23;7.75;;;3.65;;
68976;SDS011;56029;52.568;13.588;2023-03-12T07:53:49;8.83;;;3.80;;
68976;SDS011;56029;52.568;13.588;2023-03-12T07:56:14;8.30;;;3.70;;
68976;SDS011;56029;52.568;13.588;2023-03-12T07:58:40;11.05;;;4.00;;
68976;SDS011;56029;52.568;13.588;2023-03-12T08:01:05;8.70;;;3.77;;
68976;SDS011;56029;52.568;13.588;2023-03-12T08:03:31;10.68;;;4.10;;
68976;SDS011;56029;52.568;13.588;2023-03-12T08:05:58;9.23;;;3.87;;
68976;SDS011;56029;52.568;13.588;2023-03-12T08:08:25;8.70;;;3.60;;
68976;SDS011;56029;52.568;13.588;2023-03-12T08:10:50;8.30;;;3.27;;
68976;SDS011;56029;52.568;13.588;2023-03-12T08:13:17;9.18;;;3.60;;
68976;SDS011;56029;52.568;13.588;2023-03-12T08:15:42;8.30;;;3.23;;
68976;SDS011;56029;52.568;13.588;2023-03-12T08:18:08;11.52;;;3.60;;
68976;SDS011;56029;52.568;13.588;2023-03-12T08:20:34;7.63;;;3.30;;
68976;SDS011;56029;52.568;13.588;2023-03-12T08:22:59;7.13;;;3.28;;
68976;SDS011;56029;52.568;13.588;2023-03-12T08:25:25;7.60;;;3.07;;
68976;SDS011;56029;52.568;13.588;2023-03-12T08:27:50;6.53;;;3.30;;
68976;SDS011;56029;52.568;13.588;2023-03-12T08:30:16;7.17;;;3.10;;
68976;SDS011;56029;52.568;13.588;2023-03-12T08:32:42;8.77;;;3.63;;
68976;SDS011;56029;52.568;13.588;2023-03-12T08:35:07;8.30;;;3.50;;
68976;SDS011;56029;52.568;13.588;2023-03-12T08:37:34;6.60;;;3.42;;
68976;SDS011;56029;52.568;13.588;2023-03-12T08:40:00;9.33;;;2.90;;
68976;SDS011;56029;52.568;13.588;2023-03-12T08:42:26;6.05;;;2.90;;
68976;SDS011;56029;52.568;13.588;2023-03-12T08:44:52;6.63;;;3.20;;
68976;SDS011;56029;52.568;13.588;2023-03-12T08:47:17;8.57;;;2.75;;
68976;SDS011;56029;52.568;13.588;2023-03-12T08:49:43;7.47;;;2.90;;
68976;SDS011;56029;52.568;13.588;2023-03-12T08:52:08;7.60;;;3.00;;
68976;SDS011;56029;52.568;13.588;2023-03-12T08:54:34;6.63;;;2.90;;
68976;SDS011;56029;52.568;13.588;2023-03-12T08:57:00;6.13;;;2.30;;
68976;SDS011;56029;52.568;13.588;2023-03-12T08:59:25;6.10;;;2.87;;
68976;SDS011;56029;52.568;13.588;2023-03-12T09:01:51;7.72;;;2.78;;
68976;SDS011;56029;52.568;13.588;2023-03-12T09:04:16;6.53;;;2.83;;
68976;SDS011;56029;52.568;13.588;2023-03-12T09:06:42;7.32;;;2.85;;
68976;SDS011;56029;52.568;13.588;2023-03-12T09:09:07;6.43;;;2.53;;
68976;SDS011;56029;52.568;13.588;2023-03-12T09:11:34;8.13;;;2.47;;
68976;SDS011;56029;52.568;13.588;2023-03-12T09:14:00;7.32;;;2.90;;
68976;SDS011;56029;52.568;13.588;2023-03-12T09:16:27;6.67;;;2.77;;
68976;SDS011;56029;52.568;13.588;2023-03-12T09:18:53;5.78;;;2.83;;
68976;SDS011;56029;52.568;13.588;2023-03-12T09:21:19;6.38;;;2.45;;
68976;SDS011;56029;52.568;13.588;2023-03-12T09:23:44;8.30;;;2.90;;
68976;SDS011;56029;52.568;13.588;2023-03-12T09:26:10;4.85;;;2.08;;
68976;SDS011;56029;52.568;13.588;2023-03-12T09:28:36;5.17;;;2.20;;
68976;SDS011;56029;52.568;13.588;2023-03-12T09:31:02;5.78;;;2.10;;
68976;SDS011;56029;52.568;13.588;2023-03-12T09:33:29;5.20;;;2.10;;
68976;SDS011;56029;52.568;13.588;2023-03-12T09:35:56;4.68;;;1.90;;
68976;SDS011;56029;52.568;13.588;2023-03-12T09:38:22;4.77;;;2.20;;
68976;SDS011;56029;52.568;13.588;2023-03-12T09:40:48;5.78;;;2.28;;
68976;SDS011;56029;52.568;13.588;2023-03-12T09:45:54;5.67;;;2.17;;
68976;SDS011;56029;52.568;13.588;2023-03-12T09:48:27;5.53;;;2.30;;
68976;SDS011;56029;52.568;13.588;2023-03-12T09:50:57;6.53;;;2.40;;
68976;SDS011;56029;52.568;13.588;2023-03-12T09:53:37;4.03;;;2.25;;
68976;SDS011;56029;52.568;13.588;2023-03-12T09:56:17;6.18;;;2.35;;
68976;SDS011;56029;52.568;13.588;2023-03-12T09:58:44;8.87;;;2.50;;
68976;SDS011;56029;52.568;13.588;2023-03-12T10:01:22;5.47;;;2.20;;
68976;SDS011;56029;52.568;13.588;2023-03-12T10:06:34;3.78;;;1.80;;
68976;SDS011;56029;52.568;13.588;2023-03-12T10:14:51;4.28;;;1.70;;
68976;SDS011;56029;52.568;13.588;2023-03-12T10:17:37;4.10;;;1.90;;
68976;SDS011;56029;52.568;13.588;2023-03-12T10:23:38;4.05;;;2.10;;
68976;SDS011;56029;52.568;13.588;2023-03-12T10:31:47;3.97;;;1.60;;
68976;SDS011;56029;52.568;13.588;2023-03-12T10:34:23;5.82;;;1.90;;
68976;SDS011;56029;52.568;13.588;2023-03-12T10:36:57;3.33;;;1.67;;
68976;SDS011;56029;52.568;13.588;2023-03-12T10:39:24;3.43;;;1.60;;
68976;SDS011;56029;52.568;13.588;2023-03-12T10:41:49;3.20;;;1.35;;
68976;SDS011;56029;52.568;13.588;2023-03-12T10:44:22;5.40;;;2.00;;
68976;SDS011;56029;52.568;13.588;2023-03-12T10:47:03;4.63;;;1.50;;
68976;SDS011;56029;52.568;13.588;2023-03-12T10:49:33;3.83;;;1.52;;
68976;SDS011;56029;52.568;13.588;2023-03-12T10:54:47;3.28;;;1.55;;
68976;SDS011;56029;52.568;13.588;2023-03-12T10:57:14;4.87;;;1.70;;
68976;SDS011;56029;52.568;13.588;2023-03-12T10:59:42;4.18;;;1.52;;
68976;SDS011;56029;52.568;13.588;2023-03-12T11:04:53;4.13;;;1.60;;
68976;SDS011;56029;52.568;13.588;2023-03-12T11:07:22;3.87;;;1.50;;
68976;SDS011;56029;52.568;13.588;2023-03-12T11:12:30;4.53;;;1.90;;
68976;SDS011;56029;52.568;13.588;2023-03-12T11:14:56;5.20;;;1.77;;
68976;SDS011;56029;52.568;13.588;2023-03-12T11:17:23;4.22;;;1.70;;
68976;SDS011;56029;52.568;13.588;2023-03-12T11:19:51;3.10;;;1.70;;
68976;SDS011;56029;52.568;13.588;2023-03-12T11:22:28;5.65;;;1.73;;
68976;SDS011;56029;52.568;13.588;2023-03-12T11:24:57;3.73;;;1.70;;
68976;SDS011;56029;52.568;13.588;2023-03-12T11:27:29;3.10;;;1.70;;
68976;SDS011;56029;52.568;13.588;2023-03-12T11:30:06;4.82;;;1.60;;
68976;SDS011;56029;52.568;13.588;2023-03-12T11:32:37;4.90;;;1.60;;
68976;SDS011;56029;52.568;13.588;2023-03-12T11:35:14;4.18;;;2.05;;
68976;SDS011;56029;52.568;13.588;2023-03-12T11:37:52;4.57;;;1.70;;
68976;SDS011;56029;52.568;13.588;2023-03-12T11:43:46;6.80;;;2.80;;
68976;SDS011;56029;52.568;13.588;2023-03-12T11:46:32;3.83;;;1.75;;
68976;SDS011;56029;52.568;13.588;2023-03-12T12:00:32;4.65;;;2.53;;
68976;SDS011;56029;52.568;13.588;2023-03-12T12:03:13;4.25;;;2.00;;
68976;SDS011;56029;52.568;13.588;2023-03-12T12:05:59;5.97;;;2.40;;
68976;SDS011;56029;52.568;13.588;2023-03-12T12:14:38;5.45;;;2.70;;
68976;SDS011;56029;52.568;13.588;2023-03-12T12:17:24;5.03;;;2.78;;
68976;SDS011;56029;52.568;13.588;2023-03-12T12:22:50;6.22;;;3.03;;
68976;SDS011;56029;52.568;13.588;2023-03-12T12:25:45;9.23;;;3.80;;
68976;SDS011;56029;52.568;13.588;2023-03-12T12:31:21;6.47;;;2.30;;
68976;SDS011;56029;52.568;13.588;2023-03-12T12:37:14;5.28;;;2.55;;
68976;SDS011;56029;52.568;13.588;2023-03-12T12:42:40;4.35;;;2.55;;
68976;SDS011;56029;52.568;13.588;2023-03-12T12:45:15;5.55;;;2.50;;
68976;SDS011;56029;52.568;13.588;2023-03-12T12:47:44;5.17;;;2.43;;
68976;SDS011;56029;52.568;13.588;2023-03-12T12:50:18;5.72;;;2.78;;
68976;SDS011;56029;52.568;13.588;2023-03-12T12:52:51;4.70;;;2.50;;
68976;SDS011;56029;52.568;13.588;2023-03-12T12:55:36;4.55;;;2.42;;
68976;SDS011;56029;52.568;13.588;2023-03-12T12:58:11;5.95;;;2.80;;
68976;SDS011;56029;52.568;13.588;2023-03-12T13:00:47;6.30;;;2.70;;
68976;SDS011;56029;52.568;13.588;2023-03-12T13:03:19;6.35;;;2.40;;
68976;SDS011;56029;52.568;13.588;2023-03-12T13:06:03;5.38;;;2.90;;
68976;SDS011;56029;52.568;13.588;2023-03-12T13:09:19;4.28;;;2.30;;
68976;SDS011;56029;52.568;13.588;2023-03-12T13:11:23;6.55;;;3.00;;
68976;SDS011;56029;52.568;13.588;2023-03-12T13:13:50;4.77;;;2.60;;
68976;SDS011;56029;52.568;13.588;2023-03-12T13:16:42;6.18;;;2.75;;
68976;SDS011;56029;52.568;13.588;2023-03-12T13:21:40;4.70;;;2.40;;
68976;SDS011;56029;52.568;13.588;2023-03-12T13:24:21;6.15;;;2.65;;
68976;SDS011;56029;52.568;13.588;2023-03-12T13:32:00;4.95;;;2.33;;
68976;SDS011;56029;52.568;13.588;2023-03-12T13:36:51;4.72;;;2.55;;
68976;SDS011;56029;52.568;13.588;2023-03-12T13:39:29;6.63;;;2.90;;
68976;SDS011;56029;52.568;13.588;2023-03-12T13:41:59;8.48;;;3.10;;
68976;SDS011;56029;52.568;13.588;2023-03-12T13:44:45;6.03;;;2.35;;
68976;SDS011;56029;52.568;13.588;2023-03-12T13:49:40;5.05;;;2.30;;
68976;SDS011;56029;52.568;13.588;2023-03-12T13:52:20;3.93;;;2.10;;
68976;SDS011;56029;52.568;13.588;2023-03-12T13:54:56;5.20;;;2.17;;
68976;SDS011;56029;52.568;13.588;2023-03-12T13:57:43;5.50;;;2.33;;
68976;SDS011;56029;52.568;13.588;2023-03-12T14:00:16;5.82;;;2.15;;
68976;SDS011;56029;52.568;13.588;2023-03-12T14:02:58;3.42;;;2.00;;
68976;SDS011;56029;52.568;13.588;2023-03-12T14:05:31;4.37;;;2.20;;
68976;SDS011;56029;52.568;13.588;2023-03-12T14:08:09;3.72;;;2.20;;
68976;SDS011;56029;52.568;13.588;2023-03-12T14:18:56;7.87;;;2.87;;
68976;SDS011;56029;52.568;13.588;2023-03-12T14:21:22;5.68;;;2.58;;
68976;SDS011;56029;52.568;13.588;2023-03-12T14:23:56;6.80;;;2.97;;
68976;SDS011;56029;52.568;13.588;2023-03-12T14:26:28;6.93;;;2.90;;
68976;SDS011;56029;52.568;13.588;2023-03-12T14:29:05;4.38;;;2.10;;
68976;SDS011;56029;52.568;13.588;2023-03-12T14:31:34;4.47;;;1.90;;
68976;SDS011;56029;52.568;13.588;2023-03-12T14:34:08;4.25;;;1.85;;
68976;SDS011;56029;52.568;13.588;2023-03-12T14:36:45;5.93;;;1.90;;
68976;SDS011;56029;52.568;13.588;2023-03-12T14:39:20;4.03;;;1.90;;
68976;SDS011;56029;52.568;13.588;2023-03-12T14:41:55;4.05;;;2.10;;
68976;SDS011;56029;52.568;13.588;2023-03-12T14:44:28;3.80;;;1.90;;
68976;SDS011;56029;52.568;13.588;2023-03-12T14:46:59;4.40;;;1.90;;
68976;SDS011;56029;52.568;13.588;2023-03-12T14:49:37;4.30;;;2.10;;
68976;SDS011;56029;52.568;13.588;2023-03-12T14:52:05;4.35;;;1.85;;
68976;SDS011;56029;52.568;13.588;2023-03-12T14:54:30;4.03;;;1.70;;
68976;SDS011;56029;52.568;13.588;2023-03-12T14:56:56;3.10;;;1.70;;
68976;SDS011;56029;52.568;13.588;2023-03-12T14:59:23;3.20;;;1.70;;
68976;SDS011;56029;52.568;13.588;2023-03-12T15:02:17;2.83;;;1.40;;
68976;SDS011;56029;52.568;13.588;2023-03-12T15:04:43;3.47;;;1.73;;
68976;SDS011;56029;52.568;13.588;2023-03-12T15:07:10;2.53;;;1.58;;
68976;SDS011;56029;52.568;13.588;2023-03-12T15:09:43;3.03;;;1.40;;
68976;SDS011;56029;52.568;13.588;2023-03-12T15:12:20;2.83;;;1.52;;
68976;SDS011;56029;52.568;13.588;2023-03-12T15:14:49;2.05;;;1.30;;
68976;SDS011;56029;52.568;13.588;2023-03-12T15:17:19;3.92;;;1.50;;
68976;SDS011;56029;52.568;13.588;2023-03-12T15:19:47;5.25;;;1.60;;
68976;SDS011;56029;52.568;13.588;2023-03-12T15:22:20;4.40;;;1.53;;
68976;SDS011;56029;52.568;13.588;2023-03-12T15:24:48;2.42;;;1.08;;
68976;SDS011;56029;52.568;13.588;2023-03-12T15:27:18;2.33;;;1.20;;
68976;SDS011;56029;52.568;13.588;2023-03-12T15:29:52;3.45;;;1.20;;
68976;SDS011;56029;52.568;13.588;2023-03-12T15:32:19;3.00;;;1.20;;
68976;SDS011;56029;52.568;13.588;2023-03-12T15:34:46;3.33;;;1.00;;
68976;SDS011;56029;52.568;13.588;2023-03-12T15:40:03;3.00;;;1.40;;
68976;SDS011;56029;52.568;13.588;2023-03-12T15:42:37;1.90;;;1.23;;
68976;SDS011;56029;52.568;13.588;2023-03-12T15:45:05;1.87;;;1.30;;
68976;SDS011;56029;52.568;13.588;2023-03-12T15:47:42;2.58;;;1.23;;
68976;SDS011;56029;52.568;13.588;2023-03-12T15:50:19;4.45;;;2.10;;
68976;SDS011;56029;52.568;13.588;2023-03-12T15:55:23;3.90;;;2.10;;
68976;SDS011;56029;52.568;13.588;2023-03-12T15:57:52;5.70;;;1.83;;
68976;SDS011;56029;52.568;13.588;2023-03-12T16:00:22;4.38;;;1.90;;
68976;SDS011;56029;52.568;13.588;2023-03-12T16:05:34;4.53;;;1.98;;
68976;SDS011;56029;52.568;13.588;2023-03-12T16:08:09;4.15;;;2.17;;
68976;SDS011;56029;52.568;13.588;2023-03-12T16:10:45;9.23;;;2.93;;
68976;SDS011;56029;52.568;13.588;2023-03-12T16:13:15;3.40;;;1.95;;
68976;SDS011;56029;52.568;13.588;2023-03-12T16:15:44;5.45;;;2.28;;
68976;SDS011;56029;52.568;13.588;2023-03-12T16:18:13;4.05;;;2.25;;
68976;SDS011;56029;52.568;13.588;2023-03-12T16:20:40;4.93;;;1.90;;